sensor_id;sensor_type;location;lat;lon;timestamp;temperature;humidity
21425;DHT22;10873;51.132;16.848;2023-06-14T00:01:55;26.10;52.90
21425;DHT22;10873;51.132;16.848;2023-06-14T00:04:21;26.10;52.90
21425;DHT22;10873;51.132;16.848;2023-06-14T00:06:47;26.10;52.80
21425;DHT22;10873;51.132;16.848;2023-06-14T00:09:16;26.10;52.80
21425;DHT22;10873;51.132;16.848;2023-06-14T00:11:45;26.10;52.80
21425;DHT22;10873;51.132;16.848;2023-06-14T00:14:11;26.10;52.70
21425;DHT22;10873;51.132;16.848;2023-06-14T00:16:39;26.10;52.70
21425;DHT22;10873;51.132;16.848;2023-06-14T00:19:08;26.10;52.70
21425;DHT22;10873;51.132;16.848;2023-06-14T00:21:36;26.10;52.70
21425;DHT22;10873;51.132;16.848;2023-06-14T00:24:03;26.10;52.70
21425;DHT22;10873;51.132;16.848;2023-06-14T00:26:29;26.10;52.70
21425;DHT22;10873;51.132;16.848;2023-06-14T00:28:56;26.10;52.70
21425;DHT22;10873;51.132;16.848;2023-06-14T00:31:24;26.10;52.70
21425;DHT22;10873;51.132;16.848;2023-06-14T00:33:52;26.10;52.60
21425;DHT22;10873;51.132;16.848;2023-06-14T00:36:18;26.10;52.60
21425;DHT22;10873;51.132;16.848;2023-06-14T00:38:44;26.00;52.50
21425;DHT22;10873;51.132;16.848;2023-06-14T00:41:10;26.00;52.50
21425;DHT22;10873;51.132;16.848;2023-06-14T00:43:36;26.00;52.50
21425;DHT22;10873;51.132;16.848;2023-06-14T00:46:02;26.00;52.50
21425;DHT22;10873;51.132;16.848;2023-06-14T00:48:28;26.00;52.50
21425;DHT22;10873;51.132;16.848;2023-06-14T00:50:56;26.00;52.50
21425;DHT22;10873;51.132;16.848;2023-06-14T00:53:23;26.00;52.40
21425;DHT22;10873;51.132;16.848;2023-06-14T00:55:50;26.00;52.50
21425;DHT22;10873;51.132;16.848;2023-06-14T00:58:17;26.00;52.50
21425;DHT22;10873;51.132;16.848;2023-06-14T01:00:43;26.00;52.50
21425;DHT22;10873;51.132;16.848;2023-06-14T01:03:10;26.00;52.50
21425;DHT22;10873;51.132;16.848;2023-06-14T01:05:38;26.00;52.50
21425;DHT22;10873;51.132;16.848;2023-06-14T01:08:20;26.00;52.50
21425;DHT22;10873;51.132;16.848;2023-06-14T01:10:52;26.00;52.50
21425;DHT22;10873;51.132;16.848;2023-06-14T01:13:21;26.00;52.50
21425;DHT22;10873;51.132;16.848;2023-06-14T01:15:50;26.00;52.40
21425;DHT22;10873;51.132;16.848;2023-06-14T01:18:17;26.00;52.40
21425;DHT22;10873;51.132;16.848;2023-06-14T01:20:44;26.00;52.30
21425;DHT22;10873;51.132;16.848;2023-06-14T01:23:16;26.00;52.30
21425;DHT22;10873;51.132;16.848;2023-06-14T01:25:43;26.00;53.00
21425;DHT22;10873;51.132;16.848;2023-06-14T01:28:11;26.00;52.30
21425;DHT22;10873;51.132;16.848;2023-06-14T01:30:39;26.00;52.30
21425;DHT22;10873;51.132;16.848;2023-06-14T01:33:12;25.90;52.20
21425;DHT22;10873;51.132;16.848;2023-06-14T01:35:38;25.90;52.20
21425;DHT22;10873;51.132;16.848;2023-06-14T01:38:05;25.90;52.10
21425;DHT22;10873;51.132;16.848;2023-06-14T01:40:34;25.90;52.10
21425;DHT22;10873;51.132;16.848;2023-06-14T01:43:01;25.90;52.10
21425;DHT22;10873;51.132;16.848;2023-06-14T01:45:29;25.90;52.10
21425;DHT22;10873;51.132;16.848;2023-06-14T01:47:56;25.90;52.10
21425;DHT22;10873;51.132;16.848;2023-06-14T01:50:23;25.90;52.10
21425;DHT22;10873;51.132;16.848;2023-06-14T01:52:49;25.90;52.20
21425;DHT22;10873;51.132;16.848;2023-06-14T01:55:15;25.90;52.20
21425;DHT22;10873;51.132;16.848;2023-06-14T01:57:45;25.90;52.20
21425;DHT22;10873;51.132;16.848;2023-06-14T02:00:12;25.90;52.20
21425;DHT22;10873;51.132;16.848;2023-06-14T02:02:39;25.80;52.10
21425;DHT22;10873;51.132;16.848;2023-06-14T02:05:05;25.80;52.10
21425;DHT22;10873;51.132;16.848;2023-06-14T02:07:31;25.80;52.10
21425;DHT22;10873;51.132;16.848;2023-06-14T02:09:57;25.80;52.10
21425;DHT22;10873;51.132;16.848;2023-06-14T02:12:23;25.80;52.10
21425;DHT22;10873;51.132;16.848;2023-06-14T02:14:51;25.80;52.10
21425;DHT22;10873;51.132;16.848;2023-06-14T02:17:17;25.80;52.10
21425;DHT22;10873;51.132;16.848;2023-06-14T02:19:43;25.80;52.10
21425;DHT22;10873;51.132;16.848;2023-06-14T02:22:09;25.80;52.00
21425;DHT22;10873;51.132;16.848;2023-06-14T02:24:35;25.80;52.00
21425;DHT22;10873;51.132;16.848;2023-06-14T02:27:02;25.80;52.00
21425;DHT22;10873;51.132;16.848;2023-06-14T02:29:29;25.80;52.00
21425;DHT22;10873;51.132;16.848;2023-06-14T02:31:56;25.80;52.00
21425;DHT22;10873;51.132;16.848;2023-06-14T02:34:22;25.80;52.00
21425;DHT22;10873;51.132;16.848;2023-06-14T02:36:48;25.80;52.00
21425;DHT22;10873;51.132;16.848;2023-06-14T02:39:15;25.80;52.00
21425;DHT22;10873;51.132;16.848;2023-06-14T02:41:42;25.80;52.00
21425;DHT22;10873;51.132;16.848;2023-06-14T02:44:09;25.80;51.90
21425;DHT22;10873;51.132;16.848;2023-06-14T02:46:37;25.80;51.80
21425;DHT22;10873;51.132;16.848;2023-06-14T02:49:04;25.80;51.80
21425;DHT22;10873;51.132;16.848;2023-06-14T02:51:31;25.70;51.70
21425;DHT22;10873;51.132;16.848;2023-06-14T02:53:56;25.70;51.70
21425;DHT22;10873;51.132;16.848;2023-06-14T02:56:23;25.70;51.80
21425;DHT22;10873;51.132;16.848;2023-06-14T02:58:49;25.70;51.80
21425;DHT22;10873;51.132;16.848;2023-06-14T03:01:15;25.70;51.80
21425;DHT22;10873;51.132;16.848;2023-06-14T03:03:41;25.70;51.80
21425;DHT22;10873;51.132;16.848;2023-06-14T03:06:09;25.70;51.80
21425;DHT22;10873;51.132;16.848;2023-06-14T03:08:38;25.70;51.90
21425;DHT22;10873;51.132;16.848;2023-06-14T03:11:05;25.70;51.90
21425;DHT22;10873;51.132;16.848;2023-06-14T03:13:31;25.70;51.90
21425;DHT22;10873;51.132;16.848;2023-06-14T03:16:00;25.70;51.90
21425;DHT22;10873;51.132;16.848;2023-06-14T03:18:29;25.70;51.90
21425;DHT22;10873;51.132;16.848;2023-06-14T03:20:55;25.70;51.90
21425;DHT22;10873;51.132;16.848;2023-06-14T03:23:24;25.70;51.90
21425;DHT22;10873;51.132;16.848;2023-06-14T03:25:51;25.70;51.90
21425;DHT22;10873;51.132;16.848;2023-06-14T03:28:17;25.70;51.90
21425;DHT22;10873;51.132;16.848;2023-06-14T03:30:43;25.70;51.90
21425;DHT22;10873;51.132;16.848;2023-06-14T03:33:09;25.60;51.90
21425;DHT22;10873;51.132;16.848;2023-06-14T03:35:35;25.60;51.90
21425;DHT22;10873;51.132;16.848;2023-06-14T03:38:01;25.60;51.90
21425;DHT22;10873;51.132;16.848;2023-06-14T03:40:31;25.60;51.90
21425;DHT22;10873;51.132;16.848;2023-06-14T03:42:57;25.60;51.90
21425;DHT22;10873;51.132;16.848;2023-06-14T03:45:23;25.60;51.90
21425;DHT22;10873;51.132;16.848;2023-06-14T03:47:49;25.60;51.90
21425;DHT22;10873;51.132;16.848;2023-06-14T03:50:17;25.60;51.90
21425;DHT22;10873;51.132;16.848;2023-06-14T03:52:43;25.60;51.90
21425;DHT22;10873;51.132;16.848;2023-06-14T03:55:09;25.60;51.90
21425;DHT22;10873;51.132;16.848;2023-06-14T03:57:38;25.60;51.90
21425;DHT22;10873;51.132;16.848;2023-06-14T04:00:05;25.60;52.00
21425;DHT22;10873;51.132;16.848;2023-06-14T04:02:31;25.60;52.00
21425;DHT22;10873;51.132;16.848;2023-06-14T04:04:58;25.60;52.10
21425;DHT22;10873;51.132;16.848;2023-06-14T04:07:23;25.60;52.20
21425;DHT22;10873;51.132;16.848;2023-06-14T04:09:50;25.60;52.20
21425;DHT22;10873;51.132;16.848;2023-06-14T04:12:16;25.60;52.30
21425;DHT22;10873;51.132;16.848;2023-06-14T04:14:44;25.60;52.40
21425;DHT22;10873;51.132;16.848;2023-06-14T04:17:10;25.60;52.60
21425;DHT22;10873;51.132;16.848;2023-06-14T04:19:36;25.60;52.70
21425;DHT22;10873;51.132;16.848;2023-06-14T04:22:02;25.60;52.70
21425;DHT22;10873;51.132;16.848;2023-06-14T04:24:28;25.60;52.80
21425;DHT22;10873;51.132;16.848;2023-06-14T04:26:58;25.60;52.90
21425;DHT22;10873;51.132;16.848;2023-06-14T04:29:24;25.60;52.90
21425;DHT22;10873;51.132;16.848;2023-06-14T04:31:53;25.60;53.00
21425;DHT22;10873;51.132;16.848;2023-06-14T04:34:20;25.60;53.10
21425;DHT22;10873;51.132;16.848;2023-06-14T04:36:47;25.60;53.20
21425;DHT22;10873;51.132;16.848;2023-06-14T04:39:19;25.60;53.80
21425;DHT22;10873;51.132;16.848;2023-06-14T04:41:46;25.60;53.20
21425;DHT22;10873;51.132;16.848;2023-06-14T04:44:13;25.60;53.20
21425;DHT22;10873;51.132;16.848;2023-06-14T04:46:42;25.60;53.30
21425;DHT22;10873;51.132;16.848;2023-06-14T04:49:13;25.60;53.40
21425;DHT22;10873;51.132;16.848;2023-06-14T04:51:41;25.50;54.10
21425;DHT22;10873;51.132;16.848;2023-06-14T04:54:08;25.60;53.50
21425;DHT22;10873;51.132;16.848;2023-06-14T04:56:35;25.60;53.60
21425;DHT22;10873;51.132;16.848;2023-06-14T04:59:03;25.60;53.60
21425;DHT22;10873;51.132;16.848;2023-06-14T05:01:31;25.60;53.70
21425;DHT22;10873;51.132;16.848;2023-06-14T05:03:58;25.60;53.70
21425;DHT22;10873;51.132;16.848;2023-06-14T05:06:25;25.50;53.70
21425;DHT22;10873;51.132;16.848;2023-06-14T05:08:53;25.60;53.90
21425;DHT22;10873;51.132;16.848;2023-06-14T05:11:19;25.60;54.00
21425;DHT22;10873;51.132;16.848;2023-06-14T05:13:45;25.60;54.00
21425;DHT22;10873;51.132;16.848;2023-06-14T05:16:12;25.50;54.00
21425;DHT22;10873;51.132;16.848;2023-06-14T05:18:38;25.50;54.00
21425;DHT22;10873;51.132;16.848;2023-06-14T05:21:05;25.50;54.20
21425;DHT22;10873;51.132;16.848;2023-06-14T05:23:33;25.50;54.20
21425;DHT22;10873;51.132;16.848;2023-06-14T05:25:59;25.50;54.20
21425;DHT22;10873;51.132;16.848;2023-06-14T05:28:25;25.50;54.30
21425;DHT22;10873;51.132;16.848;2023-06-14T05:30:51;25.50;54.30
21425;DHT22;10873;51.132;16.848;2023-06-14T05:33:17;25.50;54.30
21425;DHT22;10873;51.132;16.848;2023-06-14T05:35:43;25.50;54.40
21425;DHT22;10873;51.132;16.848;2023-06-14T05:38:09;25.50;54.40
21425;DHT22;10873;51.132;16.848;2023-06-14T05:40:37;25.50;54.40
21425;DHT22;10873;51.132;16.848;2023-06-14T05:43:03;25.50;54.50
21425;DHT22;10873;51.132;16.848;2023-06-14T05:45:29;25.50;54.50
21425;DHT22;10873;51.132;16.848;2023-06-14T05:47:55;25.50;54.50
21425;DHT22;10873;51.132;16.848;2023-06-14T05:50:21;25.50;54.50
21425;DHT22;10873;51.132;16.848;2023-06-14T05:52:47;25.50;54.50
21425;DHT22;10873;51.132;16.848;2023-06-14T05:55:13;25.50;54.60
21425;DHT22;10873;51.132;16.848;2023-06-14T05:57:41;25.50;54.60
21425;DHT22;10873;51.132;16.848;2023-06-14T06:00:08;25.50;54.60
21425;DHT22;10873;51.132;16.848;2023-06-14T06:02:40;25.50;54.70
21425;DHT22;10873;51.132;16.848;2023-06-14T06:05:07;25.50;54.70
21425;DHT22;10873;51.132;16.848;2023-06-14T06:07:33;25.50;54.80
21425;DHT22;10873;51.132;16.848;2023-06-14T06:09:59;25.50;54.80
21425;DHT22;10873;51.132;16.848;2023-06-14T06:12:25;25.50;54.80
21425;DHT22;10873;51.132;16.848;2023-06-14T06:14:52;25.50;54.80
21425;DHT22;10873;51.132;16.848;2023-06-14T06:17:18;25.50;54.80
21425;DHT22;10873;51.132;16.848;2023-06-14T06:19:44;25.60;54.90
21425;DHT22;10873;51.132;16.848;2023-06-14T06:22:10;25.60;54.90
21425;DHT22;10873;51.132;16.848;2023-06-14T06:24:36;25.60;54.90
21425;DHT22;10873;51.132;16.848;2023-06-14T06:27:03;25.60;54.90
21425;DHT22;10873;51.132;16.848;2023-06-14T06:29:28;25.60;54.90
21425;DHT22;10873;51.132;16.848;2023-06-14T06:31:56;25.60;54.90
21425;DHT22;10873;51.132;16.848;2023-06-14T06:34:22;25.70;54.90
21425;DHT22;10873;51.132;16.848;2023-06-14T06:36:48;25.70;54.90
21425;DHT22;10873;51.132;16.848;2023-06-14T06:39:14;25.60;54.90
21425;DHT22;10873;51.132;16.848;2023-06-14T06:41:41;25.70;54.90
21425;DHT22;10873;51.132;16.848;2023-06-14T06:44:07;25.70;55.00
21425;DHT22;10873;51.132;16.848;2023-06-14T06:46:33;25.70;55.00
21425;DHT22;10873;51.132;16.848;2023-06-14T06:49:01;25.70;55.00
21425;DHT22;10873;51.132;16.848;2023-06-14T06:51:28;25.70;55.10
21425;DHT22;10873;51.132;16.848;2023-06-14T06:53:54;25.70;55.10
21425;DHT22;10873;51.132;16.848;2023-06-14T06:56:21;25.70;55.10
21425;DHT22;10873;51.132;16.848;2023-06-14T06:58:48;25.70;55.20
21425;DHT22;10873;51.132;16.848;2023-06-14T07:01:15;25.70;55.20
21425;DHT22;10873;51.132;16.848;2023-06-14T07:03:41;25.70;55.20
21425;DHT22;10873;51.132;16.848;2023-06-14T07:06:09;25.70;55.30
21425;DHT22;10873;51.132;16.848;2023-06-14T07:08:36;25.70;55.30
21425;DHT22;10873;51.132;16.848;2023-06-14T07:11:04;25.70;55.40
21425;DHT22;10873;51.132;16.848;2023-06-14T07:13:30;25.70;55.40
21425;DHT22;10873;51.132;16.848;2023-06-14T07:15:58;25.70;55.40
21425;DHT22;10873;51.132;16.848;2023-06-14T07:18:24;25.70;55.50
21425;DHT22;10873;51.132;16.848;2023-06-14T07:20:51;25.70;55.50
21425;DHT22;10873;51.132;16.848;2023-06-14T07:23:19;25.70;55.50
21425;DHT22;10873;51.132;16.848;2023-06-14T07:25:45;25.70;55.50
21425;DHT22;10873;51.132;16.848;2023-06-14T07:28:11;25.70;55.50
21425;DHT22;10873;51.132;16.848;2023-06-14T07:30:37;25.70;55.60
21425;DHT22;10873;51.132;16.848;2023-06-14T07:33:03;25.70;55.60
21425;DHT22;10873;51.132;16.848;2023-06-14T07:35:29;25.70;55.60
21425;DHT22;10873;51.132;16.848;2023-06-14T07:37:55;25.70;55.70
21425;DHT22;10873;51.132;16.848;2023-06-14T07:40:22;25.70;55.70
21425;DHT22;10873;51.132;16.848;2023-06-14T07:42:48;25.70;55.70
21425;DHT22;10873;51.132;16.848;2023-06-14T07:45:16;25.70;55.70
21425;DHT22;10873;51.132;16.848;2023-06-14T07:47:42;25.70;55.70
21425;DHT22;10873;51.132;16.848;2023-06-14T07:50:09;25.70;55.80
21425;DHT22;10873;51.132;16.848;2023-06-14T07:52:35;25.70;55.80
21425;DHT22;10873;51.132;16.848;2023-06-14T07:55:01;25.70;55.80
21425;DHT22;10873;51.132;16.848;2023-06-14T07:57:29;25.70;55.90
21425;DHT22;10873;51.132;16.848;2023-06-14T07:59:55;25.60;55.80
21425;DHT22;10873;51.132;16.848;2023-06-14T08:02:21;25.70;56.00
21425;DHT22;10873;51.132;16.848;2023-06-14T08:04:47;25.70;56.00
21425;DHT22;10873;51.132;16.848;2023-06-14T08:07:14;25.70;56.00
21425;DHT22;10873;51.132;16.848;2023-06-14T08:09:40;25.70;56.10
21425;DHT22;10873;51.132;16.848;2023-06-14T08:12:07;25.70;56.10
21425;DHT22;10873;51.132;16.848;2023-06-14T08:14:36;25.70;56.10
21425;DHT22;10873;51.132;16.848;2023-06-14T08:17:03;25.70;56.10
21425;DHT22;10873;51.132;16.848;2023-06-14T08:19:29;25.70;56.10
21425;DHT22;10873;51.132;16.848;2023-06-14T08:21:55;25.70;56.20
21425;DHT22;10873;51.132;16.848;2023-06-14T08:24:22;25.70;56.20
21425;DHT22;10873;51.132;16.848;2023-06-14T08:26:52;25.70;56.20
21425;DHT22;10873;51.132;16.848;2023-06-14T08:29:18;25.70;56.20
21425;DHT22;10873;51.132;16.848;2023-06-14T08:31:47;25.70;56.30
21425;DHT22;10873;51.132;16.848;2023-06-14T08:34:13;25.70;56.30
21425;DHT22;10873;51.132;16.848;2023-06-14T08:36:39;25.70;56.30
21425;DHT22;10873;51.132;16.848;2023-06-14T08:39:05;25.70;56.30
21425;DHT22;10873;51.132;16.848;2023-06-14T08:41:32;25.70;56.40
21425;DHT22;10873;51.132;16.848;2023-06-14T08:43:59;25.70;56.40
21425;DHT22;10873;51.132;16.848;2023-06-14T08:46:26;25.70;56.40
21425;DHT22;10873;51.132;16.848;2023-06-14T08:48:55;25.70;56.40
21425;DHT22;10873;51.132;16.848;2023-06-14T08:51:22;25.70;56.50
21425;DHT22;10873;51.132;16.848;2023-06-14T08:53:53;25.70;56.50
21425;DHT22;10873;51.132;16.848;2023-06-14T08:56:20;25.70;56.50
21425;DHT22;10873;51.132;16.848;2023-06-14T08:58:48;25.70;56.50
21425;DHT22;10873;51.132;16.848;2023-06-14T09:01:15;25.70;56.50
21425;DHT22;10873;51.132;16.848;2023-06-14T09:03:43;25.70;56.50
21425;DHT22;10873;51.132;16.848;2023-06-14T09:06:11;25.70;56.50
21425;DHT22;10873;51.132;16.848;2023-06-14T09:08:42;25.70;56.50
21425;DHT22;10873;51.132;16.848;2023-06-14T09:11:11;25.80;56.60
21425;DHT22;10873;51.132;16.848;2023-06-14T09:13:38;25.80;56.60
21425;DHT22;10873;51.132;16.848;2023-06-14T09:16:05;25.80;56.60
21425;DHT22;10873;51.132;16.848;2023-06-14T09:18:38;25.80;56.60
21425;DHT22;10873;51.132;16.848;2023-06-14T09:21:06;25.80;56.60
21425;DHT22;10873;51.132;16.848;2023-06-14T09:23:36;25.80;56.60
21425;DHT22;10873;51.132;16.848;2023-06-14T09:26:07;25.80;56.60
21425;DHT22;10873;51.132;16.848;2023-06-14T09:28:33;25.80;56.60
21425;DHT22;10873;51.132;16.848;2023-06-14T09:30:59;25.80;56.60
21425;DHT22;10873;51.132;16.848;2023-06-14T09:33:26;25.80;56.60
21425;DHT22;10873;51.132;16.848;2023-06-14T09:35:54;25.80;56.60
21425;DHT22;10873;51.132;16.848;2023-06-14T09:38:20;25.80;56.70
21425;DHT22;10873;51.132;16.848;2023-06-14T09:40:49;25.80;56.70
21425;DHT22;10873;51.132;16.848;2023-06-14T09:43:16;25.80;56.70
21425;DHT22;10873;51.132;16.848;2023-06-14T09:45:44;25.80;56.70
21425;DHT22;10873;51.132;16.848;2023-06-14T09:48:12;25.80;56.70
21425;DHT22;10873;51.132;16.848;2023-06-14T09:50:45;25.80;56.70
21425;DHT22;10873;51.132;16.848;2023-06-14T09:53:12;25.80;56.70
21425;DHT22;10873;51.132;16.848;2023-06-14T09:55:41;25.80;56.70
21425;DHT22;10873;51.132;16.848;2023-06-14T09:58:10;25.80;56.70
21425;DHT22;10873;51.132;16.848;2023-06-14T10:00:39;25.80;56.70
21425;DHT22;10873;51.132;16.848;2023-06-14T10:03:12;25.80;56.70
21425;DHT22;10873;51.132;16.848;2023-06-14T10:05:40;25.80;56.70
21425;DHT22;10873;51.132;16.848;2023-06-14T10:08:08;25.80;56.70
21425;DHT22;10873;51.132;16.848;2023-06-14T10:10:36;25.80;56.80
21425;DHT22;10873;51.132;16.848;2023-06-14T10:13:04;25.80;56.80
21425;DHT22;10873;51.132;16.848;2023-06-14T10:15:37;25.80;56.90
21425;DHT22;10873;51.132;16.848;2023-06-14T10:18:09;25.80;57.00
21425;DHT22;10873;51.132;16.848;2023-06-14T10:20:41;25.80;57.00
21425;DHT22;10873;51.132;16.848;2023-06-14T10:23:13;25.80;57.00
21425;DHT22;10873;51.132;16.848;2023-06-14T10:25:42;25.80;57.10
21425;DHT22;10873;51.132;16.848;2023-06-14T10:28:15;25.80;57.10
21425;DHT22;10873;51.132;16.848;2023-06-14T10:31:05;25.80;57.10
21425;DHT22;10873;51.132;16.848;2023-06-14T10:33:32;25.80;57.10
21425;DHT22;10873;51.132;16.848;2023-06-14T10:36:09;25.80;57.10
21425;DHT22;10873;51.132;16.848;2023-06-14T10:38:37;25.80;57.10
21425;DHT22;10873;51.132;16.848;2023-06-14T10:41:04;25.80;57.10
21425;DHT22;10873;51.132;16.848;2023-06-14T10:43:30;25.80;57.10
21425;DHT22;10873;51.132;16.848;2023-06-14T10:46:15;25.80;57.10
21425;DHT22;10873;51.132;16.848;2023-06-14T10:48:42;25.80;57.10
21425;DHT22;10873;51.132;16.848;2023-06-14T10:51:15;25.80;57.10
21425;DHT22;10873;51.132;16.848;2023-06-14T10:53:46;25.80;57.10
21425;DHT22;10873;51.132;16.848;2023-06-14T10:56:23;25.80;57.00
21425;DHT22;10873;51.132;16.848;2023-06-14T10:58:51;25.80;57.00
21425;DHT22;10873;51.132;16.848;2023-06-14T11:01:28;25.80;57.00
21425;DHT22;10873;51.132;16.848;2023-06-14T11:04:07;25.80;57.00
21425;DHT22;10873;51.132;16.848;2023-06-14T11:06:45;25.80;57.00
21425;DHT22;10873;51.132;16.848;2023-06-14T11:09:45;25.80;57.00
21425;DHT22;10873;51.132;16.848;2023-06-14T11:12:17;25.80;57.00
21425;DHT22;10873;51.132;16.848;2023-06-14T11:14:45;25.80;57.00
21425;DHT22;10873;51.132;16.848;2023-06-14T11:17:13;25.80;57.00
21425;DHT22;10873;51.132;16.848;2023-06-14T11:19:39;25.80;57.00
21425;DHT22;10873;51.132;16.848;2023-06-14T11:22:05;25.80;57.00
21425;DHT22;10873;51.132;16.848;2023-06-14T11:24:32;25.80;57.00
21425;DHT22;10873;51.132;16.848;2023-06-14T11:26:58;25.80;57.00
21425;DHT22;10873;51.132;16.848;2023-06-14T11:29:24;25.80;57.00
21425;DHT22;10873;51.132;16.848;2023-06-14T11:31:51;25.80;57.00
21425;DHT22;10873;51.132;16.848;2023-06-14T11:34:18;25.80;57.00
21425;DHT22;10873;51.132;16.848;2023-06-14T11:36:45;25.80;57.00
21425;DHT22;10873;51.132;16.848;2023-06-14T11:39:13;25.80;57.00
21425;DHT22;10873;51.132;16.848;2023-06-14T11:41:40;25.80;57.00
21425;DHT22;10873;51.132;16.848;2023-06-14T11:44:07;25.80;57.00
21425;DHT22;10873;51.132;16.848;2023-06-14T11:46:33;25.80;57.00
21425;DHT22;10873;51.132;16.848;2023-06-14T11:49:00;25.80;57.00
21425;DHT22;10873;51.132;16.848;2023-06-14T11:51:30;25.80;57.00
21425;DHT22;10873;51.132;16.848;2023-06-14T11:53:57;25.80;57.00
21425;DHT22;10873;51.132;16.848;2023-06-14T11:56:24;25.80;57.00
21425;DHT22;10873;51.132;16.848;2023-06-14T11:58:52;25.80;57.00
21425;DHT22;10873;51.132;16.848;2023-06-14T12:01:18;25.80;57.00
21425;DHT22;10873;51.132;16.848;2023-06-14T12:03:48;25.80;57.00
21425;DHT22;10873;51.132;16.848;2023-06-14T12:06:14;25.80;57.00
21425;DHT22;10873;51.132;16.848;2023-06-14T12:08:43;25.80;57.00
21425;DHT22;10873;51.132;16.848;2023-06-14T12:11:11;25.80;57.00
21425;DHT22;10873;51.132;16.848;2023-06-14T12:13:38;25.80;57.00
21425;DHT22;10873;51.132;16.848;2023-06-14T12:16:07;25.80;57.00
21425;DHT22;10873;51.132;16.848;2023-06-14T12:18:34;25.80;57.00
21425;DHT22;10873;51.132;16.848;2023-06-14T12:21:01;25.80;57.00
21425;DHT22;10873;51.132;16.848;2023-06-14T12:23:42;25.80;57.00
21425;DHT22;10873;51.132;16.848;2023-06-14T12:26:09;25.80;57.00
21425;DHT22;10873;51.132;16.848;2023-06-14T12:28:35;25.80;57.00
21425;DHT22;10873;51.132;16.848;2023-06-14T12:31:01;25.80;57.00
21425;DHT22;10873;51.132;16.848;2023-06-14T12:33:27;25.80;57.10
21425;DHT22;10873;51.132;16.848;2023-06-14T12:35:55;25.80;57.00
21425;DHT22;10873;51.132;16.848;2023-06-14T12:38:23;25.80;57.10
21425;DHT22;10873;51.132;16.848;2023-06-14T12:40:50;25.80;57.20
21425;DHT22;10873;51.132;16.848;2023-06-14T12:43:17;25.80;57.20
21425;DHT22;10873;51.132;16.848;2023-06-14T12:45:42;25.80;57.30
21425;DHT22;10873;51.132;16.848;2023-06-14T12:48:09;25.80;57.20
21425;DHT22;10873;51.132;16.848;2023-06-14T12:50:34;25.80;57.30
21425;DHT22;10873;51.132;16.848;2023-06-14T12:53:01;25.80;57.30
21425;DHT22;10873;51.132;16.848;2023-06-14T12:55:26;25.80;57.30
21425;DHT22;10873;51.132;16.848;2023-06-14T12:57:54;25.80;57.40
21425;DHT22;10873;51.132;16.848;2023-06-14T13:00:20;25.80;57.40
21425;DHT22;10873;51.132;16.848;2023-06-14T13:02:47;25.80;57.30
21425;DHT22;10873;51.132;16.848;2023-06-14T13:05:13;25.80;57.30
21425;DHT22;10873;51.132;16.848;2023-06-14T13:07:40;25.90;57.30
21425;DHT22;10873;51.132;16.848;2023-06-14T13:10:06;25.90;57.20
21425;DHT22;10873;51.132;16.848;2023-06-14T13:12:32;25.90;57.20
21425;DHT22;10873;51.132;16.848;2023-06-14T13:15:00;25.90;57.20
21425;DHT22;10873;51.132;16.848;2023-06-14T13:17:26;25.90;57.20
21425;DHT22;10873;51.132;16.848;2023-06-14T13:19:52;25.90;57.20
21425;DHT22;10873;51.132;16.848;2023-06-14T13:22:19;25.90;57.10
21425;DHT22;10873;51.132;16.848;2023-06-14T13:24:45;25.90;57.10
21425;DHT22;10873;51.132;16.848;2023-06-14T13:27:11;25.90;57.10
21425;DHT22;10873;51.132;16.848;2023-06-14T13:29:39;25.90;57.10
21425;DHT22;10873;51.132;16.848;2023-06-14T13:32:07;25.90;57.10
21425;DHT22;10873;51.132;16.848;2023-06-14T13:34:33;25.90;57.10
21425;DHT22;10873;51.132;16.848;2023-06-14T13:37:00;25.90;57.10
21425;DHT22;10873;51.132;16.848;2023-06-14T13:39:26;25.90;57.10
21425;DHT22;10873;51.132;16.848;2023-06-14T13:41:52;25.90;57.10
21425;DHT22;10873;51.132;16.848;2023-06-14T13:44:18;25.90;57.10
21425;DHT22;10873;51.132;16.848;2023-06-14T13:46:47;25.90;57.10
21425;DHT22;10873;51.132;16.848;2023-06-14T13:49:14;25.90;57.10
21425;DHT22;10873;51.132;16.848;2023-06-14T13:51:40;25.90;57.10
21425;DHT22;10873;51.132;16.848;2023-06-14T13:54:06;25.90;57.10
21425;DHT22;10873;51.132;16.848;2023-06-14T13:56:32;25.90;57.20
21425;DHT22;10873;51.132;16.848;2023-06-14T13:58:58;25.90;57.20
21425;DHT22;10873;51.132;16.848;2023-06-14T14:01:26;25.90;57.20
21425;DHT22;10873;51.132;16.848;2023-06-14T14:03:54;25.90;57.20
21425;DHT22;10873;51.132;16.848;2023-06-14T14:06:21;25.90;57.20
21425;DHT22;10873;51.132;16.848;2023-06-14T14:08:47;25.90;57.20
21425;DHT22;10873;51.132;16.848;2023-06-14T14:11:14;25.90;57.20
21425;DHT22;10873;51.132;16.848;2023-06-14T14:13:41;25.90;57.20
21425;DHT22;10873;51.132;16.848;2023-06-14T14:16:08;25.90;57.20
21425;DHT22;10873;51.132;16.848;2023-06-14T14:18:34;25.80;57.20
21425;DHT22;10873;51.132;16.848;2023-06-14T14:21:01;25.90;57.20
21425;DHT22;10873;51.132;16.848;2023-06-14T14:23:29;25.90;57.20
21425;DHT22;10873;51.132;16.848;2023-06-14T14:25:55;25.90;57.20
21425;DHT22;10873;51.132;16.848;2023-06-14T14:28:22;25.90;57.20
21425;DHT22;10873;51.132;16.848;2023-06-14T14:30:48;25.90;57.20
21425;DHT22;10873;51.132;16.848;2023-06-14T14:33:15;25.80;57.10
21425;DHT22;10873;51.132;16.848;2023-06-14T14:35:43;25.80;57.10
21425;DHT22;10873;51.132;16.848;2023-06-14T14:38:11;25.80;57.20
21425;DHT22;10873;51.132;16.848;2023-06-14T14:40:39;25.80;57.20
21425;DHT22;10873;51.132;16.848;2023-06-14T14:43:05;25.80;57.20
21425;DHT22;10873;51.132;16.848;2023-06-14T14:45:31;25.80;57.20
21425;DHT22;10873;51.132;16.848;2023-06-14T14:47:58;25.80;57.20
21425;DHT22;10873;51.132;16.848;2023-06-14T14:50:25;25.80;57.20
21425;DHT22;10873;51.132;16.848;2023-06-14T14:52:51;25.80;57.30
21425;DHT22;10873;51.132;16.848;2023-06-14T14:55:17;25.80;57.30
21425;DHT22;10873;51.132;16.848;2023-06-14T14:57:46;25.80;57.30
21425;DHT22;10873;51.132;16.848;2023-06-14T15:00:13;25.80;57.30
21425;DHT22;10873;51.132;16.848;2023-06-14T15:02:39;25.80;57.30
21425;DHT22;10873;51.132;16.848;2023-06-14T15:05:06;25.80;57.40
21425;DHT22;10873;51.132;16.848;2023-06-14T15:07:32;25.80;57.40
21425;DHT22;10873;51.132;16.848;2023-06-14T15:09:59;25.80;57.40
21425;DHT22;10873;51.132;16.848;2023-06-14T15:12:25;25.80;57.40
21425;DHT22;10873;51.132;16.848;2023-06-14T15:14:53;25.80;57.40
21425;DHT22;10873;51.132;16.848;2023-06-14T15:17:20;25.80;57.40